Time;durP1;ratioP1;P1;durP2;ratioP2;P2;SDS_P1;SDS_P2;PMS_P1;PMS_P2;Temp;Humidity;BMP_temperature;BMP_pressure;BME280_temperature;BME280_humidity;BME280_pressure;Samples;Min_cycle;Max_cycle;Signal;HPM_P1;HPM_P2
2021/03/15 00:00:41;;;;;;;0.55;0.30;;;4.20;51.70;;;;;;5079404;28;20070;-71
2021/03/15 00:03:07;;;;;;;4.65;0.40;;;4.40;50.90;;;;;;5078939;28;20028;-71
2021/03/15 00:05:33;;;;;;;1.40;0.40;;;4.40;53.30;;;;;;5079586;28;20101;-71
2021/03/15 00:07:59;;;;;;;0.17;0.15;;;4.30;53.70;;;;;;5079046;28;20078;-71
2021/03/15 00:10:24;;;;;;;0.80;0.30;;;4.30;51.20;;;;;;5079215;28;20422;-71
2021/03/15 00:12:51;;;;;;;0.73;0.20;;;4.20;52.20;;;;;;5061332;28;20111;-71
2021/03/15 00:15:18;;;;;;;0.35;0.20;;;4.20;51.50;;;;;;5061167;28;20025;-71
2021/03/15 00:17:45;;;;;;;0.20;0.20;;;4.20;52.40;;;;;;5079066;28;20028;-71
2021/03/15 00:20:13;;;;;;;0.20;0.20;;;4.20;51.00;;;;;;5079053;28;20028;-71
2021/03/15 00:22:40;;;;;;;0.20;0.20;;;4.30;51.10;;;;;;5078770;28;20024;-71
2021/03/15 00:25:06;;;;;;;1.17;0.43;;;4.30;51.20;;;;;;5078358;28;20075;-71
2021/03/15 00:27:33;;;;;;;0.35;0.20;;;4.50;49.20;;;;;;5078767;28;20058;-71
2021/03/15 00:29:58;;;;;;;0.50;0.20;;;4.50;50.40;;;;;;5078880;28;20021;-71
2021/03/15 00:32:24;;;;;;;0.63;0.20;;;4.50;50.70;;;;;;5078511;28;20054;-71
2021/03/15 00:34:51;;;;;;;1.20;0.20;;;4.60;48.10;;;;;;5078513;28;20074;-71
2021/03/15 00:37:17;;;;;;;0.40;0.28;;;4.60;47.80;;;;;;5078743;28;20078;-71
2021/03/15 00:39:43;;;;;;;0.63;0.30;;;4.80;48.30;;;;;;5078429;28;20027;-71
2021/03/15 00:42:08;;;;;;;0.65;0.32;;;4.90;48.30;;;;;;5078329;28;20383;-71
2021/03/15 00:44:35;;;;;;;0.95;0.43;;;5.10;48.80;;;;;;5078287;28;20025;-71
2021/03/15 00:47:01;;;;;;;0.80;0.40;;;5.10;50.90;;;;;;5078581;28;20069;-71
2021/03/15 00:49:27;;;;;;;1.38;0.40;;;5.10;52.10;;;;;;5060491;28;20433;-71
2021/03/15 00:51:52;;;;;;;0.77;0.50;;;4.90;53.10;;;;;;5060448;28;20021;-71
2021/03/15 00:54:20;;;;;;;1.23;0.40;;;4.80;54.00;;;;;;5078453;28;20312;-71
2021/03/15 00:56:46;;;;;;;0.22;0.20;;;4.70;53.60;;;;;;5078087;28;20038;-71
2021/03/15 00:59:11;;;;;;;0.65;0.40;;;4.70;51.20;;;;;;5077935;28;20029;-71
2021/03/15 01:01:37;;;;;;;0.43;0.20;;;4.80;50.20;;;;;;5077892;28;20074;-71
2021/03/15 01:04:04;;;;;;;0.68;0.25;;;4.80;50.10;;;;;;5077754;28;20032;-71
2021/03/15 01:06:30;;;;;;;0.60;0.30;;;4.80;50.90;;;;;;5077997;28;20043;-71
2021/03/15 01:08:55;;;;;;;0.95;0.30;;;4.80;50.60;;;;;;5077786;28;20400;-71
2021/03/15 01:11:22;;;;;;;0.82;0.30;;;4.90;48.70;;;;;;5077743;28;20041;-71
2021/03/15 01:13:48;;;;;;;0.52;0.20;;;5.00;49.90;;;;;;5077616;28;20023;-71
2021/03/15 01:16:13;;;;;;;0.20;0.20;;;5.10;48.50;;;;;;5077679;28;20108;-71
2021/03/15 01:18:39;;;;;;;0.70;0.30;;;5.20;48.50;;;;;;5077726;28;20025;-71
2021/03/15 01:21:05;;;;;;;0.55;0.28;;;5.20;47.70;;;;;;5059906;28;20036;-71
2021/03/15 01:23:30;;;;;;;0.40;0.38;;;5.40;47.30;;;;;;5077267;28;20089;-71
2021/03/15 01:25:56;;;;;;;0.70;0.30;;;5.40;47.30;;;;;;5077467;28;20040;-71
2021/03/15 01:28:22;;;;;;;0.30;0.20;;;5.30;46.90;;;;;;5077748;28;20036;-71
2021/03/15 01:30:48;;;;;;;0.20;0.20;;;5.30;47.10;;;;;;5077646;28;20036;-71
2021/03/15 01:33:15;;;;;;;0.90;0.20;;;5.30;47.90;;;;;;5077270;28;20028;-71
2021/03/15 01:35:41;;;;;;;0.28;0.20;;;5.20;47.80;;;;;;5077311;28;20021;-71
2021/03/15 01:38:07;;;;;;;0.38;0.20;;;5.20;47.30;;;;;;5077363;28;20021;-71
2021/03/15 01:40:34;;;;;;;0.75;0.30;;;5.10;48.20;;;;;;5077248;28;20042;-71
2021/03/15 01:43:00;;;;;;;0.28;0.10;;;5.00;47.90;;;;;;5077038;28;20024;-71
2021/03/15 01:45:27;;;;;;;0.63;0.20;;;5.00;47.70;;;;;;5077311;28;20127;-71
2021/03/15 01:47:53;;;;;;;0.20;0.17;;;5.00;48.20;;;;;;5077308;28;20035;-71
2021/03/15 01:50:20;;;;;;;0.28;0.20;;;4.90;49.10;;;;;;5077074;28;20319;-71
2021/03/15 01:52:47;;;;;;;0.20;0.20;;;4.90;48.70;;;;;;5077300;28;20303;-71
2021/03/15 01:55:15;;;;;;;0.60;0.30;;;4.80;49.30;;;;;;5076716;28;20078;-71
2021/03/15 01:57:41;;;;;;;0.28;0.20;;;4.70;50.50;;;;;;5077108;28;20040;-71
2021/03/15 02:00:10;;;;;;;0.22;0.13;;;4.60;49.60;;;;;;5076938;28;20416;-71
2021/03/15 02:02:38;;;;;;;1.45;0.15;;;4.60;49.10;;;;;;5076802;28;20420;-71
2021/03/15 02:05:06;;;;;;;0.20;0.20;;;4.50;49.40;;;;;;5077029;28;20035;-71
2021/03/15 02:07:32;;;;;;;0.20;0.20;;;4.50;49.20;;;;;;5076820;28;20031;-71
2021/03/15 02:09:58;;;;;;;0.10;0.10;;;4.60;48.40;;;;;;5076910;28;20021;-71
2021/03/15 02:12:48;;;;;;;0.20;0.20;;;4.60;48.60;;;;;;5076802;28;20083;-71
2021/03/15 02:15:42;;;;;;;0.20;0.20;;;4.50;48.20;;;;;;5076956;28;20024;-71
2021/03/15 02:18:38;;;;;;;0.10;0.10;;;4.40;49.20;;;;;;5076925;28;20075;-71
2021/03/15 02:21:31;;;;;;;0.17;0.10;;;4.40;47.60;;;;;;5076746;28;20312;-71
2021/03/15 02:24:00;;;;;;;0.20;0.20;;;4.40;48.10;;;;;;5076481;28;20059;-71
2021/03/15 02:27:01;;;;;;;0.68;0.30;;;4.30;52.00;;;;;;5076640;28;20028;-71
2021/03/15 02:29:39;;;;;;;0.15;0.15;;;4.00;54.20;;;;;;5076902;28;20094;-71
2021/03/15 02:32:07;;;;;;;0.22;0.20;;;3.80;54.90;;;;;;5076894;28;20035;-71
2021/03/15 02:35:02;;;;;;;0.20;0.20;;;3.50;56.30;;;;;;5076518;28;20075;-71
2021/03/15 02:37:36;;;;;;;0.50;0.15;;;3.30;53.70;;;;;;5076513;28;20036;-71
2021/03/15 02:40:11;;;;;;;1.48;0.20;;;3.20;56.50;;;;;;5076638;28;20051;-71
2021/03/15 02:42:42;;;;;;;0.30;0.20;;;3.20;57.40;;;;;;5076496;28;20029;-71
2021/03/15 02:45:08;;;;;;;0.47;0.20;;;3.10;58.60;;;;;;5076365;28;20029;-71
2021/03/15 02:47:38;;;;;;;0.20;0.20;;;3.00;59.30;;;;;;5076745;28;20050;-71
2021/03/15 02:50:07;;;;;;;3.20;0.20;;;2.90;59.50;;;;;;5076475;28;20021;-71
2021/03/15 02:52:38;;;;;;;0.20;0.20;;;2.90;58.50;;;;;;5058605;28;20029;-71
2021/03/15 02:55:05;;;;;;;0.30;0.20;;;2.80;56.70;;;;;;5076411;28;20376;-71
2021/03/15 02:57:33;;;;;;;0.65;0.20;;;2.80;55.80;;;;;;5076619;28;20055;-71
2021/03/15 02:59:59;;;;;;;0.20;0.20;;;2.80;55.90;;;;;;5076527;28;20025;-71
2021/03/15 03:02:27;;;;;;;0.20;0.20;;;2.80;58.60;;;;;;5076298;28;20031;-71
2021/03/15 03:04:54;;;;;;;0.10;0.10;;;2.80;53.70;;;;;;5076232;28;20035;-71
2021/03/15 03:07:22;;;;;;;0.17;0.13;;;3.00;49.70;;;;;;5079777;28;20078;-71
2021/03/15 03:09:48;;;;;;;0.20;0.20;;;3.20;48.10;;;;;;5080106;28;20088;-71
2021/03/15 03:12:15;;;;;;;0.40;0.22;;;3.40;55.70;;;;;;5080021;28;20399;-71
2021/03/15 03:14:43;;;;;;;0.10;0.10;;;3.30;53.80;;;;;;5079977;28;20099;-71
2021/03/15 03:17:10;;;;;;;0.20;0.20;;;3.30;55.30;;;;;;5080285;28;20025;-71
2021/03/15 03:19:39;;;;;;;0.20;0.20;;;3.20;55.20;;;;;;5079894;28;20366;-71
2021/03/15 03:22:06;;;;;;;0.50;0.20;;;3.10;53.30;;;;;;5079854;28;20020;-71
2021/03/15 03:24:32;;;;;;;0.35;0.28;;;3.10;53.90;;;;;;5061916;28;20343;-71
2021/03/15 03:26:58;;;;;;;0.22;0.20;;;3.20;56.20;;;;;;5079794;28;20029;-71
2021/03/15 03:29:25;;;;;;;0.10;0.10;;;3.20;56.80;;;;;;5079731;28;20035;-71
2021/03/15 03:31:52;;;;;;;0.10;0.10;;;3.10;53.40;;;;;;5079949;28;20020;-71
2021/03/15 03:34:19;;;;;;;0.20;0.15;;;3.00;56.10;;;;;;5061872;28;20107;-71
2021/03/15 03:36:44;;;;;;;0.47;0.20;;;2.90;55.20;;;;;;5079886;28;20028;-71
2021/03/15 03:39:11;;;;;;;0.28;0.20;;;2.80;57.40;;;;;;5079523;28;20078;-71
2021/03/15 03:41:38;;;;;;;0.20;0.20;;;2.70;57.90;;;;;;5061774;28;20036;-71
2021/03/15 03:44:13;;;;;;;0.30;0.20;;;2.50;57.80;;;;;;5079358;28;20016;-71
2021/03/15 03:46:42;;;;;;;1.27;0.30;;;2.40;59.20;;;;;;5079452;28;20021;-71
2021/03/15 03:49:09;;;;;;;0.22;0.20;;;2.30;60.30;;;;;;5079396;28;20407;-71
2021/03/15 03:51:49;;;;;;;0.25;0.25;;;2.30;60.30;;;;;;5079491;28;20031;-71
2021/03/15 03:54:22;;;;;;;0.35;0.20;;;2.20;62.80;;;;;;5079688;28;20047;-71
2021/03/15 03:57:01;;;;;;;0.25;0.20;;;2.10;64.20;;;;;;5079527;28;20067;-71
2021/03/15 03:59:29;;;;;;;0.52;0.20;;;2.00;62.90;;;;;;5079485;28;20398;-71
2021/03/15 04:01:59;;;;;;;0.20;0.20;;;1.90;62.00;;;;;;5079182;28;20095;-71
2021/03/15 04:04:30;;;;;;;0.17;0.17;;;1.80;63.40;;;;;;5078988;28;20025;-71
2021/03/15 04:06:56;;;;;;;0.60;0.30;;;1.90;63.60;;;;;;5079205;28;20029;-71
2021/03/15 04:09:31;;;;;;;0.32;0.30;;;1.90;63.40;;;;;;5061261;28;20021;-71
2021/03/15 04:12:04;;;;;;;1.65;0.30;;;1.80;63.90;;;;;;5079265;28;20073;-71
2021/03/15 04:14:33;;;;;;;1.15;0.30;;;1.80;64.00;;;;;;5079043;28;20024;-71
2021/03/15 04:17:02;;;;;;;0.80;0.40;;;1.70;64.70;;;;;;5060863;28;20032;-71
2021/03/15 04:19:35;;;;;;;1.25;0.30;;;1.60;62.00;;;;;;5078804;28;20040;-71
2021/03/15 04:22:06;;;;;;;0.40;0.28;;;1.60;63.60;;;;;;5078904;28;20099;-71
2021/03/15 04:24:33;;;;;;;0.45;0.20;;;1.70;63.40;;;;;;5078505;28;20101;-71
2021/03/15 04:27:00;;;;;;;0.20;0.20;;;1.80;63.30;;;;;;5078706;28;20020;-71
2021/03/15 04:29:27;;;;;;;0.40;0.30;;;1.80;62.50;;;;;;5078627;28;20024;-71
2021/03/15 04:31:53;;;;;;;0.70;0.40;;;1.80;59.20;;;;;;5079209;28;20025;-71
2021/03/15 04:34:20;;;;;;;0.30;0.28;;;2.00;61.00;;;;;;5078697;28;20084;-71
2021/03/15 04:36:47;;;;;;;0.20;0.20;;;1.90;62.40;;;;;;5078561;28;20021;-71
2021/03/15 04:39:14;;;;;;;0.40;0.30;;;1.80;59.90;;;;;;5078438;28;20093;-71
2021/03/15 04:41:42;;;;;;;0.57;0.38;;;1.90;60.10;;;;;;5078411;28;20035;-71
2021/03/15 04:44:09;;;;;;;0.20;0.20;;;2.00;58.10;;;;;;5060447;28;20028;-71
2021/03/15 04:46:36;;;;;;;1.25;0.20;;;2.10;60.50;;;;;;5078520;28;20017;-71
2021/03/15 04:49:07;;;;;;;0.30;0.25;;;2.20;57.80;;;;;;5060539;28;20354;-71
2021/03/15 04:51:35;;;;;;;0.20;0.20;;;2.30;58.30;;;;;;5078181;28;20020;-71
2021/03/15 04:54:02;;;;;;;0.30;0.30;;;2.40;57.80;;;;;;5078488;28;20029;-71
2021/03/15 04:56:28;;;;;;;0.45;0.30;;;2.60;54.30;;;;;;5060315;28;20048;-71
2021/03/15 04:58:55;;;;;;;0.45;0.32;;;2.80;53.90;;;;;;5078134;28;20305;-71
2021/03/15 05:01:27;;;;;;;0.40;0.30;;;3.10;52.40;;;;;;5078034;28;20024;-71
2021/03/15 05:03:53;;;;;;;0.40;0.30;;;3.50;51.60;;;;;;5060132;28;20039;-71
2021/03/15 05:06:20;;;;;;;0.45;0.30;;;3.60;50.90;;;;;;5077949;28;20071;-71
2021/03/15 05:08:49;;;;;;;0.75;0.43;;;3.70;50.20;;;;;;5077888;28;20024;-71
2021/03/15 05:11:17;;;;;;;0.43;0.30;;;3.90;50.70;;;;;;5077836;28;20020;-71
2021/03/15 05:13:43;;;;;;;0.52;0.40;;;3.90;52.10;;;;;;5077951;28;20324;-71
2021/03/15 05:16:10;;;;;;;0.73;0.20;;;3.70;51.80;;;;;;5077686;28;20029;-71
2021/03/15 05:18:37;;;;;;;0.43;0.30;;;3.50;53.40;;;;;;5077934;28;20036;-71
2021/03/15 05:21:04;;;;;;;0.80;0.68;;;3.40;51.50;;;;;;5059898;28;20029;-71
2021/03/15 05:23:32;;;;;;;0.30;0.30;;;3.50;52.10;;;;;;5077241;28;20045;-71
2021/03/15 05:25:58;;;;;;;0.20;0.20;;;3.60;51.30;;;;;;5077601;28;20031;-71
2021/03/15 05:28:24;;;;;;;1.98;0.20;;;3.60;50.90;;;;;;5059166;28;20320;-71
2021/03/15 05:30:51;;;;;;;0.35;0.25;;;3.60;51.90;;;;;;5077554;28;20038;-71
2021/03/15 05:33:21;;;;;;;0.40;0.30;;;3.50;52.50;;;;;;5077604;28;20427;-71
2021/03/15 05:35:50;;;;;;;0.25;0.20;;;3.40;52.40;;;;;;5077340;28;20029;-71
2021/03/15 05:38:16;;;;;;;0.40;0.25;;;3.40;51.60;;;;;;5060103;28;20028;-71
2021/03/15 05:40:44;;;;;;;0.50;0.30;;;3.30;55.90;;;;;;5077274;28;20025;-71
2021/03/15 05:43:25;;;;;;;0.25;0.20;;;3.00;55.90;;;;;;5076988;28;20040;-71
2021/03/15 05:46:09;;;;;;;0.20;0.20;;;3.10;51.90;;;;;;5077242;28;20064;-71
2021/03/15 05:49:08;;;;;;;0.20;0.20;;;3.20;51.90;;;;;;5077259;28;20024;-71
2021/03/15 05:52:03;;;;;;;0.88;0.30;;;3.20;53.00;;;;;;5077214;28;20031;-71
2021/03/15 05:54:57;;;;;;;0.20;0.20;;;3.20;52.90;;;;;;5059141;28;20087;-71
2021/03/15 05:57:40;;;;;;;1.85;0.20;;;3.30;52.90;;;;;;5076987;28;20028;-71
2021/03/15 06:00:30;;;;;;;1.00;0.60;;;3.40;52.30;;;;;;5077236;28;20030;-71
2021/03/15 06:03:15;;;;;;;0.50;0.40;;;3.40;52.50;;;;;;5077047;28;20100;-71
2021/03/15 06:05:46;;;;;;;0.73;0.28;;;3.40;53.20;;;;;;5077206;28;20408;-71
2021/03/15 06:08:20;;;;;;;0.50;0.22;;;3.40;56.50;;;;;;5059150;28;20383;-71
2021/03/15 06:11:05;;;;;;;0.38;0.30;;;3.30;55.60;;;;;;5076905;28;20475;-71
2021/03/15 06:13:35;;;;;;;0.28;0.20;;;3.20;58.00;;;;;;5076790;28;20038;-71
2021/03/15 06:16:02;;;;;;;0.70;0.22;;;3.10;57.30;;;;;;5076717;28;20420;-71
2021/03/15 06:18:29;;;;;;;0.22;0.20;;;3.10;56.80;;;;;;5076993;28;20024;-71
2021/03/15 06:20:56;;;;;;;0.32;0.25;;;3.20;55.30;;;;;;5076752;28;20365;-71
2021/03/15 06:23:22;;;;;;;1.35;0.28;;;3.20;54.70;;;;;;5076433;28;20382;-71
2021/03/15 06:25:49;;;;;;;0.20;0.20;;;3.50;51.60;;;;;;5076687;28;20099;-71
2021/03/15 06:28:16;;;;;;;1.08;0.50;;;3.80;50.20;;;;;;5076686;28;20024;-71
2021/03/15 06:30:43;;;;;;;0.65;0.35;;;4.10;48.70;;;;;;5076637;28;20017;-71
2021/03/15 06:33:09;;;;;;;0.30;0.20;;;4.40;51.50;;;;;;5076851;28;20040;-71
2021/03/15 06:35:37;;;;;;;0.50;0.25;;;4.90;49.70;;;;;;5076732;28;20048;-71
2021/03/15 06:38:04;;;;;;;0.57;0.30;;;5.20;48.80;;;;;;5076558;28;20028;-71
2021/03/15 06:40:33;;;;;;;0.32;0.28;;;5.40;48.50;;;;;;5079105;28;20075;-71
2021/03/15 06:43:01;;;;;;;0.80;0.30;;;5.50;48.20;;;;;;5080535;28;20375;-71
2021/03/15 06:45:27;;;;;;;0.70;0.30;;;5.70;46.90;;;;;;5080604;28;20044;-71
2021/03/15 06:47:53;;;;;;;0.30;0.22;;;5.70;48.70;;;;;;5080847;28;20360;-71
2021/03/15 06:50:19;;;;;;;0.63;0.40;;;5.80;53.60;;;;;;5062787;28;20028;-71
2021/03/15 06:52:54;;;;;;;0.32;0.20;;;5.90;52.30;;;;;;5080549;28;20016;-71
2021/03/15 06:55:29;;;;;;;0.68;0.32;;;5.80;53.00;;;;;;5062694;28;20029;-71
2021/03/15 06:57:55;;;;;;;0.30;0.30;;;5.70;53.00;;;;;;5080700;28;20029;-71
2021/03/15 07:00:30;;;;;;;0.25;0.20;;;5.60;50.10;;;;;;5080594;28;20036;-71
2021/03/15 07:03:03;;;;;;;1.05;0.30;;;5.60;49.80;;;;;;5080186;28;20036;-71
2021/03/15 07:05:31;;;;;;;0.88;0.25;;;5.80;49.20;;;;;;5080589;28;20025;-71
2021/03/15 07:07:59;;;;;;;0.30;0.20;;;6.00;46.20;;;;;;5080400;28;20070;-71
2021/03/15 07:10:30;;;;;;;0.28;0.20;;;6.30;47.20;;;;;;5079973;28;20108;-71
2021/03/15 07:13:16;;;;;;;0.40;0.25;;;6.40;47.10;;;;;;5080021;28;20019;-71
2021/03/15 07:15:44;;;;;;;0.45;0.25;;;6.40;46.20;;;;;;5080126;28;20038;-71
2021/03/15 07:18:11;;;;;;;0.75;0.30;;;6.50;45.70;;;;;;5079977;28;20096;-71
2021/03/15 07:20:51;;;;;;;0.43;0.20;;;6.50;45.90;;;;;;5079928;28;20034;-71
2021/03/15 07:23:44;;;;;;;0.30;0.20;;;6.50;45.30;;;;;;5079765;28;20048;-71
2021/03/15 07:26:22;;;;;;;1.17;0.30;;;6.50;45.70;;;;;;5080139;28;20036;-71
2021/03/15 07:28:49;;;;;;;0.98;0.57;;;6.40;44.30;;;;;;5079715;28;20044;-71
2021/03/15 07:31:20;;;;;;;1.73;0.80;;;6.40;50.40;;;;;;5062036;28;20031;-71
2021/03/15 07:34:06;;;;;;;1.35;0.70;;;6.30;56.00;;;;;;5079707;28;20032;-71
2021/03/15 07:36:33;;;;;;;2.45;0.80;;;6.00;58.40;;;;;;5066047;28;20455;-71
2021/03/15 07:39:07;;;;;;;0.43;0.30;;;5.80;58.10;;;;;;5061860;28;20025;-71
2021/03/15 07:41:36;;;;;;;0.30;0.30;;;5.70;50.00;;;;;;5080134;28;20032;-71
2021/03/15 07:44:20;;;;;;;0.82;0.30;;;5.90;47.40;;;;;;5079421;28;20348;-71
2021/03/15 07:46:48;;;;;;;1.85;1.23;;;6.10;48.40;;;;;;5079500;28;20332;-71
2021/03/15 07:49:31;;;;;;;0.17;0.17;;;6.40;52.70;;;;;;5079660;28;20020;-71
2021/03/15 07:52:03;;;;;;;1.58;0.30;;;6.70;45.20;;;;;;5078864;28;20025;-71
2021/03/15 07:54:35;;;;;;;0.40;0.30;;;7.00;45.60;;;;;;5079765;28;20037;-71
2021/03/15 07:57:16;;;;;;;0.20;0.20;;;7.30;42.80;;;;;;5079744;28;20052;-71
2021/03/15 07:59:43;;;;;;;0.30;0.30;;;7.50;41.00;;;;;;5079216;28;20025;-71
2021/03/15 08:02:20;;;;;;;1.55;0.60;;;7.70;41.10;;;;;;5079194;28;20358;-71
2021/03/15 08:04:48;;;;;;;2.25;0.90;;;7.90;42.10;;;;;;5079021;28;20403;-71
2021/03/15 08:07:15;;;;;;;1.95;1.20;;;8.20;50.60;;;;;;5079117;28;20070;-71
2021/03/15 08:09:42;;;;;;;1.50;0.80;;;8.60;56.60;;;;;;5061266;28;20017;-72
2021/03/15 08:12:10;;;;;;;1.30;0.90;;;8.70;52.40;;;;;;5079130;28;20063;-71
2021/03/15 08:14:38;;;;;;;1.48;0.80;;;8.50;51.60;;;;;;5061420;28;20367;-71
2021/03/15 08:17:07;;;;;;;1.85;0.90;;;8.20;52.20;;;;;;5079249;28;20024;-71
2021/03/15 08:19:36;;;;;;;1.50;0.70;;;7.90;53.10;;;;;;5078874;28;20052;-71
2021/03/15 08:22:03;;;;;;;1.15;0.80;;;7.70;49.90;;;;;;5078907;28;20023;-71
2021/03/15 08:24:33;;;;;;;1.90;1.10;;;7.40;53.40;;;;;;5078516;28;20055;-71
2021/03/15 08:27:01;;;;;;;2.35;1.70;;;7.20;56.00;;;;;;5078863;28;20099;-71
2021/03/15 08:29:27;;;;;;;2.70;1.70;;;7.10;60.50;;;;;;5078620;28;20033;-71
2021/03/15 08:31:55;;;;;;;2.72;1.90;;;6.90;62.10;;;;;;5078639;28;20021;-71
2021/03/15 08:34:24;;;;;;;3.10;1.65;;;6.80;62.10;;;;;;5078516;28;20122;-71
2021/03/15 08:36:50;;;;;;;1.95;1.33;;;6.70;62.80;;;;;;5078571;28;20031;-71
2021/03/15 08:39:27;;;;;;;2.33;1.55;;;6.60;63.50;;;;;;5060723;28;20029;-71
2021/03/15 08:42:11;;;;;;;3.00;2.10;;;6.70;62.90;;;;;;5078442;28;20301;-71
2021/03/15 08:44:42;;;;;;;4.97;2.15;;;6.70;63.60;;;;;;5078220;28;20036;-71
2021/03/15 08:47:10;;;;;;;3.88;3.28;;;6.80;64.60;;;;;;5078628;28;20399;-71
2021/03/15 08:49:36;;;;;;;2.78;2.10;;;6.80;64.20;;;;;;5078290;28;20025;-71
2021/03/15 08:52:03;;;;;;;3.47;2.38;;;7.10;65.10;;;;;;5078357;28;20074;-71
2021/03/15 08:54:47;;;;;;;3.78;2.05;;;7.00;65.30;;;;;;5078024;28;20412;-71
2021/03/15 08:57:29;;;;;;;2.63;2.08;;;7.00;65.10;;;;;;5078180;28;20104;-71
2021/03/15 08:59:55;;;;;;;3.25;2.40;;;6.90;67.00;;;;;;5078106;28;20412;-71
2021/03/15 09:02:35;;;;;;;4.20;2.67;;;6.90;65.90;;;;;;5077892;28;20435;-71
2021/03/15 09:05:23;;;;;;;5.20;2.88;;;7.00;65.20;;;;;;5077448;28;20029;-71
2021/03/15 09:07:50;;;;;;;4.32;2.50;;;7.20;64.30;;;;;;5077965;28;20017;-71
2021/03/15 09:10:25;;;;;;;4.55;1.88;;;7.30;62.10;;;;;;5077884;28;20104;-71
2021/03/15 09:13:12;;;;;;;2.63;2.40;;;7.70;62.50;;;;;;5077691;28;20464;-71
2021/03/15 09:15:42;;;;;;;3.55;2.40;;;8.10;62.90;;;;;;5077759;28;20028;-71
2021/03/15 09:18:48;;;;;;;4.35;2.90;;;8.50;59.50;;;;;;5077932;28;20024;-72
2021/03/15 09:21:23;;;;;;;9.18;3.15;;;8.60;60.30;;;;;;5038248;28;20093;-72
2021/03/15 09:23:49;;;;;;;2.90;2.17;;;9.10;57.70;;;;;;5077319;28;20120;-72
2021/03/15 09:26:24;;;;;;;4.68;2.10;;;9.60;57.00;;;;;;5077464;28;20032;-72
2021/03/15 09:28:53;;;;;;;3.00;2.20;;;10.20;56.90;;;;;;5077540;28;20120;-72
2021/03/15 09:31:19;;;;;;;3.63;2.45;;;10.50;56.10;;;;;;5077427;28;20050;-72
2021/03/15 09:33:45;;;;;;;3.85;2.40;;;10.80;56.10;;;;;;5059615;28;20021;-72
2021/03/15 09:36:11;;;;;;;2.85;2.25;;;10.90;53.70;;;;;;5077316;28;20324;-72
2021/03/15 09:38:38;;;;;;;5.05;2.20;;;11.10;54.00;;;;;;5077357;28;20064;-72
2021/03/15 09:41:08;;;;;;;2.40;1.92;;;11.40;53.60;;;;;;5077531;28;20028;-72
2021/03/15 09:43:34;;;;;;;2.83;2.22;;;11.70;54.30;;;;;;5077007;28;20031;-72
2021/03/15 09:46:03;;;;;;;4.70;2.67;;;12.10;54.90;;;;;;5077258;28;20020;-72
2021/03/15 09:48:31;;;;;;;3.28;2.53;;;12.70;51.30;;;;;;5077279;28;20020;-72
2021/03/15 09:50:59;;;;;;;5.15;2.20;;;13.30;50.30;;;;;;5077128;28;20029;-72
2021/03/15 09:53:26;;;;;;;2.78;2.20;;;14.00;49.80;;;;;;5077216;28;20020;-72
2021/03/15 09:56:01;;;;;;;4.20;2.13;;;14.20;49.60;;;;;;5077023;28;20020;-72
2021/03/15 09:58:27;;;;;;;3.00;1.95;;;14.30;50.40;;;;;;5077034;28;20025;-72
2021/03/15 10:00:54;;;;;;;3.80;1.92;;;14.60;47.40;;;;;;5076958;28;20439;-72
2021/03/15 10:03:26;;;;;;;3.55;2.10;;;15.20;47.10;;;;;;5077106;28;20020;-72
2021/03/15 10:05:53;;;;;;;3.15;1.75;;;15.70;47.90;;;;;;5077076;28;20463;-72
2021/03/15 10:08:19;;;;;;;2.72;2.17;;;15.90;46.90;;;;;;5076868;28;20095;-72
2021/03/15 10:10:44;;;;;;;2.97;2.15;;;15.90;48.80;;;;;;5076883;28;20108;-72
2021/03/15 10:13:10;;;;;;;3.88;2.40;;;16.70;46.70;;;;;;5062800;28;20024;-72
2021/03/15 10:15:36;;;;;;;3.00;2.30;;;17.00;44.60;;;;;;5085328;28;20035;-72
2021/03/15 10:18:03;;;;;;;3.05;2.42;;;16.70;45.40;;;;;;5059286;28;20093;-72
2021/03/15 10:20:34;;;;;;;2.50;1.73;;;16.30;46.60;;;;;;5076738;28;20033;-72
2021/03/15 10:23:20;;;;;;;3.50;2.10;;;16.30;46.80;;;;;;5076539;28;20020;-73
2021/03/15 10:26:15;;;;;;;4.32;1.83;;;16.50;45.90;;;;;;5076485;28;20054;-72
2021/03/15 10:28:41;;;;;;;4.68;2.35;;;16.40;45.90;;;;;;5074484;28;20122;-72
2021/03/15 10:31:08;;;;;;;3.03;2.13;;;16.10;45.50;;;;;;5076740;28;20412;-71
2021/03/15 10:33:33;;;;;;;3.80;2.45;;;15.70;46.00;;;;;;5076462;28;20028;-72
2021/03/15 10:35:59;;;;;;;3.38;2.03;;;15.30;48.50;;;;;;5076806;28;20044;-72
2021/03/15 10:38:28;;;;;;;5.28;2.38;;;15.60;50.00;;;;;;5058889;28;20024;-72
2021/03/15 10:40:54;;;;;;;4.68;2.08;;;16.30;46.40;;;;;;5076628;28;20349;-72
2021/03/15 10:43:22;;;;;;;2.78;2.00;;;16.40;44.90;;;;;;5076682;28;20107;-71
2021/03/15 10:45:49;;;;;;;2.60;1.80;;;16.30;46.90;;;;;;5076448;28;20104;-72
2021/03/15 10:48:15;;;;;;;3.65;2.20;;;16.50;47.80;;;;;;5076442;28;20025;-72
2021/03/15 10:50:45;;;;;;;2.45;1.90;;;16.50;49.20;;;;;;5076492;28;20439;-72
2021/03/15 10:53:14;;;;;;;4.63;2.20;;;16.60;48.30;;;;;;5076562;28;20035;-72
2021/03/15 10:55:40;;;;;;;4.22;2.60;;;16.60;45.50;;;;;;5058615;28;20039;-72
2021/03/15 10:58:11;;;;;;;2.83;2.00;;;16.50;47.00;;;;;;5076659;28;20031;-72
2021/03/15 11:00:41;;;;;;;3.75;1.95;;;16.70;45.50;;;;;;5076422;28;20063;-72
2021/03/15 11:03:08;;;;;;;2.35;1.80;;;16.50;45.20;;;;;;5076256;28;20039;-72
2021/03/15 11:05:35;;;;;;;2.67;2.17;;;16.30;46.40;;;;;;5076337;28;20017;-72
2021/03/15 11:08:01;;;;;;;5.55;2.03;;;16.30;44.70;;;;;;5076311;28;20020;-72
2021/03/15 11:10:29;;;;;;;3.95;1.95;;;16.30;44.20;;;;;;5076253;28;20027;-72
2021/03/15 11:12:57;;;;;;;2.88;2.00;;;16.50;44.70;;;;;;5076439;28;20285;-72
2021/03/15 11:15:32;;;;;;;2.30;1.80;;;16.50;44.30;;;;;;5076162;28;20293;-72
2021/03/15 11:18:00;;;;;;;4.57;2.03;;;16.50;48.30;;;;;;5076409;28;20020;-72
2021/03/15 11:20:40;;;;;;;3.13;2.00;;;16.50;45.60;;;;;;5076375;28;20104;-72
2021/03/15 11:23:07;;;;;;;3.78;1.98;;;16.40;45.60;;;;;;5075983;28;20142;-72
2021/03/15 11:25:33;;;;;;;2.83;1.80;;;16.30;46.50;;;;;;5058382;28;20328;-71
2021/03/15 11:28:05;;;;;;;3.13;1.90;;;16.20;46.70;;;;;;5078924;28;20416;-72
2021/03/15 11:30:31;;;;;;;4.18;1.88;;;16.20;47.90;;;;;;5079779;28;20099;-72
2021/03/15 11:32:58;;;;;;;3.58;2.30;;;16.00;48.00;;;;;;5061915;28;20123;-72
2021/03/15 11:35:26;;;;;;;3.10;2.08;;;16.00;47.50;;;;;;5080135;28;20029;-72
2021/03/15 11:37:51;;;;;;;3.17;2.22;;;16.10;49.30;;;;;;5079693;28;20016;-73
2021/03/15 11:40:38;;;;;;;4.35;2.53;;;16.10;44.50;;;;;;5079606;28;20024;-73
2021/03/15 11:43:05;;;;;;;7.18;2.35;;;16.10;49.60;;;;;;5079665;28;20078;-73
2021/03/15 11:45:32;;;;;;;3.42;2.47;;;15.80;48.50;;;;;;5079767;28;20035;-72
2021/03/15 11:47:57;;;;;;;3.83;2.25;;;15.80;47.30;;;;;;5062041;28;20320;-72
2021/03/15 11:50:24;;;;;;;6.63;2.67;;;15.70;46.80;;;;;;5061657;28;20032;-72
2021/03/15 11:52:52;;;;;;;2.83;2.30;;;15.50;49.40;;;;;;5079404;28;20032;-72
2021/03/15 11:55:18;;;;;;;3.47;2.50;;;15.40;47.70;;;;;;5079270;28;20044;-73
2021/03/15 11:57:44;;;;;;;4.22;2.22;;;15.40;48.40;;;;;;5079258;28;20028;-73
2021/03/15 12:00:14;;;;;;;3.55;2.45;;;15.50;50.60;;;;;;5079168;28;20069;-72
2021/03/15 12:02:41;;;;;;;4.10;2.47;;;15.50;50.00;;;;;;5079657;28;20362;-72
2021/03/15 12:05:10;;;;;;;3.15;2.47;;;15.40;48.40;;;;;;5079086;28;20033;-72
2021/03/15 12:07:37;;;;;;;4.03;2.72;;;15.20;51.40;;;;;;5079187;28;20017;-72
2021/03/15 12:10:05;;;;;;;4.68;2.65;;;14.80;50.60;;;;;;5079049;28;20031;-73
2021/03/15 12:12:31;;;;;;;4.45;2.20;;;14.40;50.10;;;;;;5079179;28;20042;-73
2021/03/15 12:14:56;;;;;;;4.65;2.20;;;13.70;50.10;;;;;;5078782;28;20029;-73
2021/03/15 12:17:22;;;;;;;5.45;3.13;;;12.90;52.60;;;;;;5078966;28;20099;-73
2021/03/15 12:19:48;;;;;;;5.90;3.25;;;12.40;54.60;;;;;;5078888;28;20063;-73
2021/03/15 12:22:13;;;;;;;4.75;3.42;;;11.90;55.90;;;;;;5078714;28;20016;-73
2021/03/15 12:24:39;;;;;;;7.82;3.28;;;11.40;57.60;;;;;;5078512;28;20102;-73
2021/03/15 12:27:05;;;;;;;5.05;3.45;;;10.90;57.30;;;;;;5061001;28;20035;-72
2021/03/15 12:29:32;;;;;;;5.38;4.22;;;10.30;60.20;;;;;;5078722;28;20052;-72
2021/03/15 12:31:58;;;;;;;5.13;3.85;;;10.00;63.40;;;;;;5078686;28;20017;-72
2021/03/15 12:34:24;;;;;;;4.47;3.30;;;10.40;63.20;;;;;;5060765;28;20033;-73
2021/03/15 12:36:50;;;;;;;5.03;3.83;;;11.00;61.90;;;;;;5078733;28;20473;-73
2021/03/15 12:39:16;;;;;;;7.22;3.67;;;11.50;62.30;;;;;;5078320;28;20029;-72
2021/03/15 12:41:42;;;;;;;5.05;3.53;;;11.50;59.20;;;;;;5078695;28;20028;-72
2021/03/15 12:44:08;;;;;;;4.55;3.53;;;11.30;59.10;;;;;;5078342;28;20025;-72
2021/03/15 12:46:34;;;;;;;4.85;3.55;;;10.80;62.30;;;;;;5078632;28;20024;-72
2021/03/15 12:48:59;;;;;;;5.35;3.47;;;10.70;64.70;;;;;;5078293;28;20073;-72
2021/03/15 12:51:25;;;;;;;6.47;3.63;;;10.80;62.40;;;;;;5078296;28;20411;-72
2021/03/15 12:53:51;;;;;;;5.72;3.85;;;10.80;61.80;;;;;;5078505;28;20032;-72
2021/03/15 12:56:17;;;;;;;4.88;3.55;;;10.70;62.40;;;;;;5078191;28;20083;-72
2021/03/15 12:58:42;;;;;;;6.13;4.18;;;10.80;61.10;;;;;;5078077;28;20024;-72
2021/03/15 13:01:08;;;;;;;7.32;4.32;;;10.90;62.90;;;;;;5078089;28;20044;-72
2021/03/15 13:03:34;;;;;;;5.60;4.43;;;11.00;63.30;;;;;;5077881;28;20074;-72
2021/03/15 13:05:59;;;;;;;6.18;3.75;;;11.20;64.30;;;;;;5077950;28;20025;-72
2021/03/15 13:08:25;;;;;;;5.72;4.13;;;11.30;62.40;;;;;;5077933;28;20491;-72